Observation data for Roaring Springs on 10/14/2019      Previous  Date       Current Mesonet Observations  Soil Data  Daily Summary Page  Observations in Plain Language
KRRS 140500Z 21006KT 14/07 A2994 RMK A01 T01440065  RH  060%=      5-min Rain = 0
KRRS 140505Z 21006KT 15/06 A2994 RMK A01 T01470064  RH  059%=      5-min Rain = 0
KRRS 140510Z 21007KT 15/07 A2994 RMK A01 T01460066  RH  060%=      5-min Rain = 0
KRRS 140515Z 21007KT 15/07 A2994 RMK A01 T01450065  RH  060%=      5-min Rain = 0
KRRS 140520Z 22007KT 15/06 A2994 RMK A01 T01450063  RH  060%=      5-min Rain = 0
KRRS 140525Z 22007KT 15/06 A2994 RMK A01 T01510061  RH  056%=      5-min Rain = 0
KRRS 140530Z 21007KT 16/06 A2994 RMK A01 T01560062  RH  055%=      5-min Rain = 0
KRRS 140535Z 22007KT 16/06 A2994 RMK A01 T01590063  RH  054%=      5-min Rain = 0
KRRS 140540Z 24007KT 15/06 A2994 RMK A01 T01530064  RH  057%=      5-min Rain = 0
KRRS 140545Z 24006KT 16/06 A2994 RMK A01 T01550063  RH  056%=      5-min Rain = 0
KRRS 140550Z 24006KT 16/06 A2994 RMK A01 T01580064  RH  055%=      5-min Rain = 0
KRRS 140555Z 23007KT 16/07 A2994 RMK A01 T01580065  RH  055%=      5-min Rain = 0
KRRS 140600Z 23006KT 16/07 A2994 RMK A01 T01560066  RH  056%=      5-min Rain = 0
KRRS 140605Z 23006KT 16/07 A2995 RMK A01 T01550066  RH  057%=      5-min Rain = 0
KRRS 140610Z 23006KT 15/07 A2995 RMK A01 T01530067  RH  058%=      5-min Rain = 0
KRRS 140615Z 23006KT 15/07 A2995 RMK A01 T01510067  RH  059%=      5-min Rain = 0
KRRS 140620Z 23006KT 15/07 A2995 RMK A01 T01490067  RH  059%=      5-min Rain = 0
KRRS 140625Z 24006KT 15/07 A2994 RMK A01 T01490068  RH  060%=      5-min Rain = 0
KRRS 140630Z 24008KT 15/07 A2994 RMK A01 T01520068  RH  059%=      5-min Rain = 0
KRRS 140635Z 24008KT 16/07 A2994 RMK A01 T01570068  RH  057%=      5-min Rain = 0
KRRS 140640Z 24007KT 16/07 A2994 RMK A01 T01560069  RH  057%=      5-min Rain = 0
KRRS 140645Z 23008KT 16/07 A2994 RMK A01 T01560069  RH  058%=      5-min Rain = 0
KRRS 140650Z 23008KT 17/07 A2994 RMK A01 T01650069  RH  054%=      5-min Rain = 0
KRRS 140655Z 23008KT 17/07 A2994 RMK A01 T01710069  RH  052%=      5-min Rain = 0
KRRS 140700Z 22007KT 17/07 A2994 RMK A01 T01700070  RH  053%=      5-min Rain = 0
KRRS 140705Z 22006KT 16/07 A2994 RMK A01 T01610071  RH  057%=      5-min Rain = 0
KRRS 140710Z 21006KT 16/07 A2994 RMK A01 T01550070  RH  058%=      5-min Rain = 0
KRRS 140715Z 20005KT 16/07 A2994 RMK A01 T01560069  RH  058%=      5-min Rain = 0
KRRS 140720Z 22005KT 16/07 A2994 RMK A01 T01570069  RH  057%=      5-min Rain = 0
KRRS 140725Z 21005KT 16/07 A2994 RMK A01 T01570069  RH  057%=      5-min Rain = 0
KRRS 140730Z 18007KT 15/07 A2994 RMK A01 T01540071  RH  059%=      5-min Rain = 0
KRRS 140735Z 18008KT 15/07 A2994 RMK A01 T01480072  RH  062%=      5-min Rain = 0
KRRS 140740Z 20007KT 15/07 A2994 RMK A01 T01460072  RH  063%=      5-min Rain = 0
KRRS 140745Z 20006KT 14/07 A2994 RMK A01 T01430071  RH  064%=      5-min Rain = 0
KRRS 140750Z 20007KT 14/07 A2994 RMK A01 T01360071  RH  067%=      5-min Rain = 0
KRRS 140755Z 23007KT 13/07 A2994 RMK A01 T01340070  RH  067%=      5-min Rain = 0
KRRS 140800Z 23008KT 14/07 A2994 RMK A01 T01430070  RH  063%=      5-min Rain = 0
KRRS 140805Z 23007KT 15/07 A2994 RMK A01 T01470070  RH  062%=      5-min Rain = 0
KRRS 140810Z 23007KT 14/07 A2994 RMK A01 T01440070  RH  063%=      5-min Rain = 0
KRRS 140815Z 24007KT 14/07 A2994 RMK A01 T01420070  RH  064%=      5-min Rain = 0
KRRS 140820Z 24009KT 15/07 A2994 RMK A01 T01480072  RH  062%=      5-min Rain = 0
KRRS 140825Z 25008KT 16/07 A2994 RMK A01 T01610073  RH  058%=      5-min Rain = 0
KRRS 140830Z 26006KT 16/07 A2994 RMK A01 T01590073  RH  058%=      5-min Rain = 0
KRRS 140835Z 25007KT 16/07 A2994 RMK A01 T01550072  RH  059%=      5-min Rain = 0
KRRS 140840Z 26007KT 15/07 A2994 RMK A01 T01520072  RH  061%=      5-min Rain = 0
KRRS 140845Z 26007KT 15/07 A2994 RMK A01 T01480073  RH  062%=      5-min Rain = 0
KRRS 140850Z 26008KT 14/07 A2994 RMK A01 T01430073  RH  064%=      5-min Rain = 0
KRRS 140855Z 26008KT 14/07 A2994 RMK A01 T01410074  RH  066%=      5-min Rain = 0
KRRS 140900Z 25007KT 14/07 A2993 RMK A01 T01390074  RH  067%=      5-min Rain = 0
KRRS 140905Z 26008KT 14/07 A2993 RMK A01 T01360074  RH  068%=      5-min Rain = 0
KRRS 140910Z 26008KT 14/07 A2993 RMK A01 T01360074  RH  068%=      5-min Rain = 0
KRRS 140915Z 26008KT 14/08 A2993 RMK A01 T01370075  RH  068%=      5-min Rain = 0
KRRS 140920Z 26008KT 14/08 A2993 RMK A01 T01380076  RH  068%=      5-min Rain = 0
KRRS 140925Z 26008KT 14/08 A2993 RMK A01 T01380076  RH  068%=      5-min Rain = 0
KRRS 140930Z 26009KT 14/08 A2993 RMK A01 T01370077  RH  069%=      5-min Rain = 0
KRRS 140935Z 26009KT 14/08 A2993 RMK A01 T01370077  RH  069%=      5-min Rain = 0
KRRS 140940Z 26008KT 14/08 A2993 RMK A01 T01380078  RH  069%=      5-min Rain = 0
KRRS 140945Z 26007KT 14/08 A2993 RMK A01 T01360078  RH  070%=      5-min Rain = 0
KRRS 140950Z 26007KT 13/08 A2993 RMK A01 T01330078  RH  071%=      5-min Rain = 0
KRRS 140955Z 24006KT 13/08 A2993 RMK A01 T01300078  RH  073%=      5-min Rain = 0
KRRS 141000Z 25008KT 13/08 A2993 RMK A01 T01270077  RH  074%=      5-min Rain = 0
KRRS 141005Z 25009KT 13/08 A2993 RMK A01 T01270077  RH  074%=      5-min Rain = 0
KRRS 141010Z 26009KT 13/08 A2993 RMK A01 T01320077  RH  072%=      5-min Rain = 0
KRRS 141015Z 26008KT 13/08 A2993 RMK A01 T01320078  RH  072%=      5-min Rain = 0
KRRS 141020Z 25008KT 13/08 A2993 RMK A01 T01310078  RH  072%=      5-min Rain = 0
KRRS 141025Z 25008KT 13/08 A2993 RMK A01 T01310078  RH  072%=      5-min Rain = 0
KRRS 141030Z 26009KT 13/08 A2993 RMK A01 T01310078  RH  072%=      5-min Rain = 0
KRRS 141035Z 26008KT 13/08 A2993 RMK A01 T01330079  RH  071%=      5-min Rain = 0
KRRS 141040Z 27009KT 13/08 A2993 RMK A01 T01340079  RH  071%=      5-min Rain = 0
KRRS 141045Z 26009KT 14/08 A2993 RMK A01 T01350079  RH  071%=      5-min Rain = 0
KRRS 141050Z 26009KT 14/08 A2993 RMK A01 T01360079  RH  070%=      5-min Rain = 0
KRRS 141055Z 27009KT 14/08 A2993 RMK A01 T01360079  RH  070%=      5-min Rain = 0
KRRS 141100Z 27009KT 14/08 A2993 RMK A01 T01350079  RH  071%=      5-min Rain = 0
KRRS 141105Z 26009KT 14/08 A2993 RMK A01 T01360079  RH  070%=      5-min Rain = 0
KRRS 141110Z 27009KT 14/08 A2993 RMK A01 T01390079  RH  069%=      5-min Rain = 0
KRRS 141115Z 27009KT 14/08 A2993 RMK A01 T01390079  RH  069%=      5-min Rain = 0
KRRS 141120Z 27010KT 14/08 A2993 RMK A01 T01390079  RH  069%=      5-min Rain = 0
KRRS 141125Z 27009KT 14/08 A2993 RMK A01 T01380079  RH  069%=      5-min Rain = 0
KRRS 141130Z 26008KT 14/08 A2993 RMK A01 T01380079  RH  070%=      5-min Rain = 0
KRRS 141135Z 25007KT 14/08 A2994 RMK A01 T01380080  RH  070%=      5-min Rain = 0
KRRS 141140Z 26007KT 14/08 A2994 RMK A01 T01380080  RH  070%=      5-min Rain = 0
KRRS 141145Z 26008KT 14/08 A2994 RMK A01 T01370080  RH  070%=      5-min Rain = 0
KRRS 141150Z 25008KT 14/08 A2994 RMK A01 T01390079  RH  069%=      5-min Rain = 0
KRRS 141155Z 25007KT 14/08 A2994 RMK A01 T01400080  RH  069%=      5-min Rain = 0
KRRS 141200Z 25006KT 14/08 A2994 RMK A01 T01380081  RH  070%=      5-min Rain = 0
KRRS 141205Z 26008KT 14/08 A2994 RMK A01 T01380080  RH  070%=      5-min Rain = 0
KRRS 141210Z 26008KT 14/08 A2994 RMK A01 T01430078  RH  067%=      5-min Rain = 0
KRRS 141215Z 26007KT 14/08 A2994 RMK A01 T01440077  RH  066%=      5-min Rain = 0
KRRS 141220Z 26008KT 14/08 A2995 RMK A01 T01430077  RH  066%=      5-min Rain = 0
KRRS 141225Z 26008KT 14/08 A2995 RMK A01 T01420076  RH  066%=      5-min Rain = 0
KRRS 141230Z 26009KT 14/07 A2995 RMK A01 T01420074  RH  065%=      5-min Rain = 0
KRRS 141235Z 27009KT 15/07 A2995 RMK A01 T01450071  RH  063%=      5-min Rain = 0
KRRS 141240Z 27009KT 15/07 A2995 RMK A01 T01460070  RH  062%=      5-min Rain = 0
KRRS 141245Z 27010KT 15/07 A2995 RMK A01 T01470069  RH  061%=      5-min Rain = 0
KRRS 141250Z 27009KT 15/07 A2995 RMK A01 T01470070  RH  061%=      5-min Rain = 0
KRRS 141255Z 28010KT 15/07 A2995 RMK A01 T01450070  RH  062%=      5-min Rain = 0
KRRS 141300Z 28010KT 14/07 A2995 RMK A01 T01420068  RH  063%=      5-min Rain = 0
KRRS 141305Z 28010KT 14/07 A2995 RMK A01 T01420065  RH  061%=      5-min Rain = 0
KRRS 141310Z 28010KT 14/06 A2995 RMK A01 T01430064  RH  060%=      5-min Rain = 0
KRRS 141315Z 28010KT 15/06 A2995 RMK A01 T01460064  RH  059%=      5-min Rain = 0
KRRS 141320Z 28010KT 15/06 A2995 RMK A01 T01490064  RH  058%=      5-min Rain = 0
KRRS 141325Z 28010KT 15/06 A2995 RMK A01 T01530064  RH  057%=      5-min Rain = 0
KRRS 141330Z 28010KT 16/06 A2995 RMK A01 T01560063  RH  055%=      5-min Rain = 0
KRRS 141335Z 28010KT 16/06 A2995 RMK A01 T01580063  RH  054%=      5-min Rain = 0
KRRS 141340Z 28010KT 16/06 A2995 RMK A01 T01610063  RH  053%=      5-min Rain = 0
KRRS 141345Z 28008KT 16/06 A2995 RMK A01 T01620062  RH  053%=      5-min Rain = 0
KRRS 141350Z 26005KT 17/06 A2996 RMK A01 T01650064  RH  052%=      5-min Rain = 0
KRRS 141355Z 09004KT 16/07 A2996 RMK A01 T01640070  RH  055%=      5-min Rain = 0
KRRS 141400Z 07004KT 16/07 A2996 RMK A01 T01580073  RH  059%=      5-min Rain = 0
KRRS 141405Z 05001KT 16/07 A2997 RMK A01 T01570070  RH  058%=      5-min Rain = 0
KRRS 141410Z 27003KT 16/07 A2997 RMK A01 T01620071  RH  056%=      5-min Rain = 0
KRRS 141415Z 27007KT 17/07 A2997 RMK A01 T01700069  RH  052%=      5-min Rain = 0
KRRS 141420Z 27007KT 18/07 A2997 RMK A01 T01820069  RH  049%=      5-min Rain = 0
KRRS 141425Z 27006KT 19/07 A2997 RMK A01 T01900071  RH  047%=      5-min Rain = 0
KRRS 141430Z 26004KT 19/07 A2997 RMK A01 T01940072  RH  046%=      5-min Rain = 0
KRRS 141435Z 26004KT 20/07 A2997 RMK A01 T02000069  RH  044%=      5-min Rain = 0
KRRS 141440Z 27003KT 21/07 A2997 RMK A01 T02050073  RH  044%=      5-min Rain = 0
KRRS 141445Z 27002KT 21/08 A2997 RMK A01 T02110077  RH  043%=      5-min Rain = 0
KRRS 141450Z 25003KT 22/08 A2997 RMK A01 T02170079  RH  042%=      5-min Rain = 0
KRRS 141455Z 27004KT 22/08 A2997 RMK A01 T02230083  RH  042%=      5-min Rain = 0
KRRS 141500Z 23004KT 23/09 A2997 RMK A01 T02290087  RH  041%=      5-min Rain = 0
KRRS 141505Z 25004KT 23/09 A2997 RMK A01 T02300085  RH  041%=      5-min Rain = 0
KRRS 141510Z 22004KT 23/10 A2997 RMK A01 T02310099  RH  044%=      5-min Rain = 0
KRRS 141515Z 18005KT 23/10 A2997 RMK A01 T02260101  RH  047%=      5-min Rain = 0
KRRS 141520Z 18006KT 22/10 A2997 RMK A01 T02190100  RH  048%=      5-min Rain = 0
KRRS 141525Z 18005KT 21/10 A2997 RMK A01 T02140100  RH  050%=      5-min Rain = 0
KRRS 141530Z 19005KT 21/10 A2997 RMK A01 T02120100  RH  050%=      5-min Rain = 0
KRRS 141535Z 19006KT 21/10 A2998 RMK A01 T02130099  RH  050%=      5-min Rain = 0
KRRS 141540Z 19005KT 21/10 A2998 RMK A01 T02140098  RH  049%=      5-min Rain = 0
KRRS 141545Z 18006KT 22/10 A2997 RMK A01 T02160095  RH  048%=      5-min Rain = 0
KRRS 141550Z 17007KT 22/10 A2998 RMK A01 T02180096  RH  047%=      5-min Rain = 0
KRRS 141555Z 18007KT 22/10 A2998 RMK A01 T02160096  RH  048%=      5-min Rain = 0
KRRS 141600Z 19006KT 22/10 A2997 RMK A01 T02190100  RH  048%=      5-min Rain = 0
KRRS 141605Z 18006KT 23/10 A2997 RMK A01 T02250104  RH  048%=      5-min Rain = 0
KRRS 141610Z 17006KT 23/10 A2997 RMK A01 T02280101  RH  046%=      5-min Rain = 0
KRRS 141615Z 18006KT 23/10 A2997 RMK A01 T02300102  RH  046%=      5-min Rain = 0
KRRS 141620Z 18007KT 24/11 A2997 RMK A01 T02350107  RH  046%=      5-min Rain = 0
KRRS 141625Z 19007KT 24/11 A2997 RMK A01 T02420105  RH  044%=      5-min Rain = 0
KRRS 141630Z 18007KT 24/10 A2997 RMK A01 T02400103  RH  043%=      5-min Rain = 0
KRRS 141635Z 18007KT 24/11 A2997 RMK A01 T02400105  RH  044%=      5-min Rain = 0
KRRS 141640Z 19007KT 24/11 A2997 RMK A01 T02420105  RH  043%=      5-min Rain = 0
KRRS 141645Z 22008KT 25/09 A2997 RMK A01 T02460089  RH  038%=      5-min Rain = 0
KRRS 141650Z 22008KT 25/09 A2997 RMK A01 T02470088  RH  037%=      5-min Rain = 0
KRRS 141655Z 23008KT 25/09 A2997 RMK A01 T02490091  RH  038%=      5-min Rain = 0
KRRS 141700Z 23008KT 25/09 A2997 RMK A01 T02500090  RH  037%=      5-min Rain = 0
KRRS 141705Z 22008KT 25/09 A2996 RMK A01 T02510092  RH  038%=      5-min Rain = 0
KRRS 141710Z 23008KT 26/09 A2996 RMK A01 T02560093  RH  037%=      5-min Rain = 0
KRRS 141715Z 22006KT 26/09 A2996 RMK A01 T02610091  RH  035%=      5-min Rain = 0
KRRS 141720Z 22007KT 26/09 A2996 RMK A01 T02590087  RH  035%=      5-min Rain = 0
KRRS 141725Z 23007KT 26/09 A2996 RMK A01 T02590089  RH  035%=      5-min Rain = 0
KRRS 141730Z 23006G12KT 26/09 A2996 RMK A01 T02600091  RH  035%=      5-min Rain = 0
KRRS 141735Z 23005KT 26/09 A2996 RMK A01 T02610086  RH  034%=      5-min Rain = 0
KRRS 141740Z 24006KT 26/09 A2995 RMK A01 T02620088  RH  034%=      5-min Rain = 0
KRRS 141745Z 22004KT 26/09 A2995 RMK A01 T02620092  RH  035%=      5-min Rain = 0
KRRS 141750Z 22006KT 26/09 A2995 RMK A01 T02610088  RH  034%=      5-min Rain = 0
KRRS 141755Z 21005KT 26/09 A2995 RMK A01 T02610087  RH  034%=      5-min Rain = 0
KRRS 141800Z 21005KT 26/09 A2995 RMK A01 T02630089  RH  034%=      5-min Rain = 0
KRRS 141805Z 19006KT 26/10 A2995 RMK A01 T02630096  RH  036%=      5-min Rain = 0
KRRS 141810Z 19007KT 26/10 A2994 RMK A01 T02620100  RH  037%=      5-min Rain = 0
KRRS 141815Z 19007KT 26/10 A2994 RMK A01 T02610103  RH  038%=      5-min Rain = 0
KRRS 141820Z 19007KT 26/11 A2994 RMK A01 T02600105  RH  039%=      5-min Rain = 0
KRRS 141825Z 19008KT 26/11 A2994 RMK A01 T02600106  RH  039%=      5-min Rain = 0
KRRS 141830Z 19008KT 26/10 A2994 RMK A01 T02580104  RH  039%=      5-min Rain = 0
KRRS 141835Z 18009KT 26/11 A2994 RMK A01 T02610107  RH  039%=      5-min Rain = 0
KRRS 141840Z 19010KT 27/10 A2993 RMK A01 T02670100  RH  036%=      5-min Rain = 0
KRRS 141845Z 20007KT 26/10 A2993 RMK A01 T02630098  RH  036%=      5-min Rain = 0
KRRS 141850Z 20008KT 26/10 A2993 RMK A01 T02600095  RH  036%=      5-min Rain = 0
KRRS 141855Z 20008KT 26/09 A2992 RMK A01 T02600094  RH  036%=      5-min Rain = 0
KRRS 141900Z 20008KT 26/09 A2992 RMK A01 T02620093  RH  036%=      5-min Rain = 0
KRRS 141905Z 19009KT 26/09 A2992 RMK A01 T02640092  RH  035%=      5-min Rain = 0
KRRS 141910Z 19009KT 26/09 A2992 RMK A01 T02640091  RH  035%=      5-min Rain = 0
KRRS 141915Z 19008KT 26/09 A2991 RMK A01 T02620089  RH  034%=      5-min Rain = 0
KRRS 141920Z 20008KT 26/10 A2991 RMK A01 T02630095  RH  036%=      5-min Rain = 0
KRRS 141925Z 21009G15KT 27/09 A2991 RMK A01 T02710094  RH  034%=      5-min Rain = 0
KRRS 141930Z 21009KT 28/09 A2991 RMK A01 T02750093  RH  033%=      5-min Rain = 0
KRRS 141935Z 19009KT 28/09 A2991 RMK A01 T02760093  RH  033%=      5-min Rain = 0
KRRS 141940Z 20009G14KT 28/10 A299 RMK A01 T02770098  RH  034%=      5-min Rain = 0
KRRS 141945Z 19010KT 28/10 A299 RMK A01 T02770096  RH  033%=      5-min Rain = 0
KRRS 141950Z 18010KT 27/09 A299 RMK A01 T02730090  RH  032%=      5-min Rain = 0
KRRS 141955Z 20011KT 28/09 A299 RMK A01 T02750094  RH  033%=      5-min Rain = 0
KRRS 142000Z 19011KT 28/10 A299 RMK A01 T02770096  RH  033%=      5-min Rain = 0
KRRS 142005Z 20011KT 28/09 A299 RMK A01 T02770094  RH  033%=      5-min Rain = 0
KRRS 142010Z 20009G14KT 28/09 A2989 RMK A01 T02770093  RH  033%=      5-min Rain = 0
KRRS 142015Z 19009KT 28/10 A2989 RMK A01 T02800098  RH  033%=      5-min Rain = 0
KRRS 142020Z 19011G16KT 28/10 A2989 RMK A01 T02780095  RH  033%=      5-min Rain = 0
KRRS 142025Z 19011KT 27/09 A2989 RMK A01 T02740091  RH  033%=      5-min Rain = 0
KRRS 142030Z 20011KT 27/09 A2989 RMK A01 T02700090  RH  033%=      5-min Rain = 0
KRRS 142035Z 19011KT 27/09 A2989 RMK A01 T02720094  RH  034%=      5-min Rain = 0
KRRS 142040Z 19011KT 28/10 A2988 RMK A01 T02770095  RH  033%=      5-min Rain = 0
KRRS 142045Z 20010KT 28/10 A2988 RMK A01 T02810098  RH  033%=      5-min Rain = 0
KRRS 142050Z 21011G16KT 28/10 A2988 RMK A01 T02820096  RH  032%=      5-min Rain = 0
KRRS 142055Z 21011KT 28/10 A2988 RMK A01 T02840097  RH  032%=      5-min Rain = 0
KRRS 142100Z 19010KT 29/10 A2988 RMK A01 T02860098  RH  032%=      5-min Rain = 0
KRRS 142105Z 21011KT 29/10 A2988 RMK A01 T02850096  RH  032%=      5-min Rain = 0
KRRS 142110Z 20009KT 28/10 A2988 RMK A01 T02830096  RH  032%=      5-min Rain = 0
KRRS 142115Z 21009KT 29/10 A2987 RMK A01 T02850098  RH  032%=      5-min Rain = 0
KRRS 142120Z 21010KT 29/10 A2988 RMK A01 T02870100  RH  032%=      5-min Rain = 0
KRRS 142125Z 22009KT 28/10 A2987 RMK A01 T02840098  RH  032%=      5-min Rain = 0
KRRS 142130Z 21008G13KT 29/10 A2987 RMK A01 T02880101  RH  032%=      5-min Rain = 0
KRRS 142135Z 20010KT 29/10 A2987 RMK A01 T02880100  RH  032%=      5-min Rain = 0
KRRS 142140Z 21011G17KT 29/10 A2987 RMK A01 T02900099  RH  031%=      5-min Rain = 0
KRRS 142145Z 23009KT 29/10 A2987 RMK A01 T02890100  RH  032%=      5-min Rain = 0
KRRS 142150Z 20011KT 29/10 A2987 RMK A01 T02900099  RH  032%=      5-min Rain = 0
KRRS 142155Z 19011KT 29/10 A2987 RMK A01 T02890101  RH  032%=      5-min Rain = 0
KRRS 142200Z 19009KT 29/10 A2987 RMK A01 T02900103  RH  032%=      5-min Rain = 0
KRRS 142205Z 19011KT 29/10 A2987 RMK A01 T02900102  RH  032%=      5-min Rain = 0
KRRS 142210Z 20012G17KT 29/10 A2987 RMK A01 T02880100  RH  032%=      5-min Rain = 0
KRRS 142215Z 20011KT 29/10 A2987 RMK A01 T02880099  RH  032%=      5-min Rain = 0
KRRS 142220Z 21010KT 29/10 A2987 RMK A01 T02890100  RH  032%=      5-min Rain = 0
KRRS 142225Z 20009KT 29/10 A2987 RMK A01 T02890100  RH  032%=      5-min Rain = 0
KRRS 142230Z 21008G13KT 29/10 A2987 RMK A01 T02900101  RH  032%=      5-min Rain = 0
KRRS 142235Z 20009G14KT 29/10 A2987 RMK A01 T02880099  RH  032%=      5-min Rain = 0
KRRS 142240Z 21010KT 29/10 A2987 RMK A01 T02880098  RH  032%=      5-min Rain = 0
KRRS 142245Z 20009KT 29/10 A2986 RMK A01 T02870100  RH  032%=      5-min Rain = 0
KRRS 142250Z 19010KT 29/10 A2986 RMK A01 T02860101  RH  033%=      5-min Rain = 0
KRRS 142255Z 18010KT 29/10 A2986 RMK A01 T02850103  RH  033%=      5-min Rain = 0
KRRS 142300Z 19009KT 28/11 A2986 RMK A01 T02840106  RH  034%=      5-min Rain = 0
KRRS 142305Z 19009KT 28/11 A2986 RMK A01 T02830105  RH  034%=      5-min Rain = 0
KRRS 142310Z 19010KT 28/10 A2986 RMK A01 T02810104  RH  034%=      5-min Rain = 0
KRRS 142315Z 19009KT 28/11 A2986 RMK A01 T02790108  RH  035%=      5-min Rain = 0
KRRS 142320Z 19009KT 28/11 A2986 RMK A01 T02770111  RH  037%=      5-min Rain = 0
KRRS 142325Z 18009KT 28/11 A2986 RMK A01 T02750112  RH  037%=      5-min Rain = 0
KRRS 142330Z 18008KT 27/12 A2986 RMK A01 T02730116  RH  039%=      5-min Rain = 0
KRRS 142335Z 18008KT 27/12 A2986 RMK A01 T02700117  RH  040%=      5-min Rain = 0
KRRS 142340Z 18008KT 27/12 A2986 RMK A01 T02670120  RH  042%=      5-min Rain = 0
KRRS 142345Z 19008KT 26/12 A2986 RMK A01 T02620120  RH  043%=      5-min Rain = 0
KRRS 142350Z 19007KT 26/12 A2986 RMK A01 T02590119  RH  043%=      5-min Rain = 0
KRRS 142355Z 19007KT 25/12 A2987 RMK A01 T02540119  RH  045%=      5-min Rain = 0
KRRS 150000Z 19006KT 25/12 A2987 RMK A01 T02490119  RH  046%=      5-min Rain = 0
KRRS 150005Z 19006KT 24/12 A2987 RMK A01 T02440118  RH  047%=      5-min Rain = 0
KRRS 150010Z 19006KT 24/12 A2987 RMK A01 T02390118  RH  048%=      5-min Rain = 0
KRRS 150015Z 19006KT 24/12 A2987 RMK A01 T02360118  RH  049%=      5-min Rain = 0
KRRS 150020Z 19006KT 23/12 A2987 RMK A01 T02310117  RH  051%=      5-min Rain = 0
KRRS 150025Z 19005KT 23/12 A2987 RMK A01 T02300116  RH  050%=      5-min Rain = 0
KRRS 150030Z 19005KT 23/12 A2987 RMK A01 T02330115  RH  049%=      5-min Rain = 0
KRRS 150035Z 19005KT 23/12 A2987 RMK A01 T02310115  RH  050%=      5-min Rain = 0
KRRS 150040Z 18005KT 23/12 A2987 RMK A01 T02320115  RH  049%=      5-min Rain = 0
KRRS 150045Z 18006KT 23/12 A2987 RMK A01 T02280117  RH  051%=      5-min Rain = 0
KRRS 150050Z 18006KT 23/12 A2987 RMK A01 T02250121  RH  054%=      5-min Rain = 0
KRRS 150055Z 18005KT 22/12 A2987 RMK A01 T02230122  RH  055%=      5-min Rain = 0
KRRS 150100Z 19005KT 22/13 A2988 RMK A01 T02210125  RH  056%=      5-min Rain = 0
KRRS 150105Z 19005KT 22/12 A2988 RMK A01 T02180123  RH  057%=      5-min Rain = 0
KRRS 150110Z 19006KT 22/13 A2988 RMK A01 T02190125  RH  057%=      5-min Rain = 0
KRRS 150115Z 19006KT 21/13 A2988 RMK A01 T02140127  RH  060%=      5-min Rain = 0
KRRS 150120Z 18006KT 21/13 A2989 RMK A01 T02100130  RH  063%=      5-min Rain = 0
KRRS 150125Z 18007KT 21/13 A2989 RMK A01 T02050132  RH  066%=      5-min Rain = 0
KRRS 150130Z 18007KT 20/13 A2989 RMK A01 T02030134  RH  067%=      5-min Rain = 0
KRRS 150135Z 19007KT 20/13 A2989 RMK A01 T02020134  RH  067%=      5-min Rain = 0
KRRS 150140Z 19007KT 20/13 A2989 RMK A01 T02010134  RH  068%=      5-min Rain = 0
KRRS 150145Z 19008KT 20/13 A2989 RMK A01 T01970134  RH  070%=      5-min Rain = 0
KRRS 150150Z 19008KT 20/14 A2989 RMK A01 T01970136  RH  071%=      5-min Rain = 0
KRRS 150155Z 20007KT 20/14 A2989 RMK A01 T01970137  RH  071%=      5-min Rain = 0
KRRS 150200Z 20007KT 20/14 A299 RMK A01 T01960137  RH  072%=      5-min Rain = 0
KRRS 150205Z 20008KT 20/14 A299 RMK A01 T01950137  RH  072%=      5-min Rain = 0
KRRS 150210Z 20008KT 20/14 A299 RMK A01 T01950140  RH  073%=      5-min Rain = 0
KRRS 150215Z 20007KT 19/14 A299 RMK A01 T01920138  RH  074%=      5-min Rain = 0
KRRS 150220Z 20008KT 19/14 A299 RMK A01 T01900136  RH  074%=      5-min Rain = 0
KRRS 150225Z 19008KT 19/14 A299 RMK A01 T01900138  RH  075%=      5-min Rain = 0
KRRS 150230Z 19008KT 19/14 A299 RMK A01 T01900141  RH  076%=      5-min Rain = 0
KRRS 150235Z 19008KT 19/14 A299 RMK A01 T01920142  RH  076%=      5-min Rain = 0
KRRS 150240Z 18007KT 19/14 A299 RMK A01 T01910142  RH  076%=      5-min Rain = 0
KRRS 150245Z 18008KT 19/14 A299 RMK A01 T01910143  RH  077%=      5-min Rain = 0
KRRS 150250Z 17008KT 19/14 A299 RMK A01 T01940143  RH  075%=      5-min Rain = 0
KRRS 150255Z 18008KT 20/14 A299 RMK A01 T01950143  RH  075%=      5-min Rain = 0
KRRS 150300Z 18009KT 19/14 A2991 RMK A01 T01940143  RH  076%=      5-min Rain = 0
KRRS 150305Z 18008KT 20/14 A2991 RMK A01 T01960143  RH  075%=      5-min Rain = 0
KRRS 150310Z 18008KT 20/14 A2991 RMK A01 T01960143  RH  075%=      5-min Rain = 0
KRRS 150315Z 18008KT 19/14 A2991 RMK A01 T01930143  RH  076%=      5-min Rain = 0
KRRS 150320Z 18008KT 19/14 A2991 RMK A01 T01910143  RH  077%=      5-min Rain = 0
KRRS 150325Z 18009KT 19/14 A2991 RMK A01 T01910143  RH  077%=      5-min Rain = 0
KRRS 150330Z 18008KT 19/14 A2991 RMK A01 T01920143  RH  076%=      5-min Rain = 0
KRRS 150335Z 18008KT 19/14 A2992 RMK A01 T01910143  RH  077%=      5-min Rain = 0
KRRS 150340Z 18008KT 19/14 A2991 RMK A01 T01890143  RH  078%=      5-min Rain = 0
KRRS 150345Z 17008KT 19/14 A2991 RMK A01 T01890143  RH  078%=      5-min Rain = 0
KRRS 150350Z 17007KT 19/14 A2991 RMK A01 T01880143  RH  078%=      5-min Rain = 0
KRRS 150355Z 17008KT 19/14 A2992 RMK A01 T01890143  RH  078%=      5-min Rain = 0
KRRS 150400Z 17007KT 19/14 A2992 RMK A01 T01900143  RH  077%=      5-min Rain = 0
KRRS 150405Z 17006KT 19/14 A2992 RMK A01 T01870142  RH  078%=      5-min Rain = 0
KRRS 150410Z 18006KT 18/14 A2992 RMK A01 T01840142  RH  080%=      5-min Rain = 0
KRRS 150415Z 18006KT 18/14 A2992 RMK A01 T01820142  RH  081%=      5-min Rain = 0
KRRS 150420Z 19005KT 18/14 A2992 RMK A01 T01800142  RH  082%=      5-min Rain = 0
KRRS 150425Z 19004KT 18/14 A2992 RMK A01 T01780142  RH  083%=      5-min Rain = 0
KRRS 150430Z 19004KT 18/14 A2992 RMK A01 T01780142  RH  083%=      5-min Rain = 0
KRRS 150435Z 19003KT 18/14 A2992 RMK A01 T01780143  RH  084%=      5-min Rain = 0
KRRS 150440Z 19004KT 18/14 A2992 RMK A01 T01790144  RH  083%=      5-min Rain = 0
KRRS 150445Z 19005KT 18/14 A2992 RMK A01 T01780143  RH  083%=      5-min Rain = 0
KRRS 150450Z 18005KT 18/14 A2992 RMK A01 T01750142  RH  085%=      5-min Rain = 0
KRRS 150455Z 18006KT 17/14 A2992 RMK A01 T01720141  RH  086%=      5-min Rain = 0

Page generated in 0.0096 seconds.